FW4178 Weather Reports


Display with metric or nautical units.
time (UTC)temp
F
wind
direction
speed
MPH
gust
MPH
rain 1hr
in
rain 24hr
in
rain mn
in
humidity
%
barometer
mb
20191018113000 70 229 2.0 9.0 0.00 0.00 0.00 88 1015.4
20191018110036 70 235 6.0 9.0 0.00 0.00 0.00 87 1015.1
20191018104513 70 110 2.0 9.0 0.00 0.00 0.00 87 1014.8
20191018103007 70 187 2.0 9.0 0.00 0.00 0.00 87 1014.9
20191018101500 70 167 2.0 8.0 0.00 0.00 0.00 87 1014.8
20191018094639 70 155 2.0 6.0 0.00 0.00 0.00 87 1014.6
20191018093111 70 197 2.0 10.0 0.00 0.00 0.00 87 1014.6
20191018090024 70 186 2.0 10.0 0.00 0.00 0.00 87 1014.3
20191018084503 71 158 3.0 10.0 0.00 0.00 0.00 87 1014.4
20191018081601 71 199 1.0 10.0 0.00 0.00 0.00 86 1014.5
20191018080015 71 186 1.0 7.0 0.00 0.00 0.00 85 1014.5
20191018074518 71 178 1.0 7.0 0.00 0.00 0.00 85 1014.3
20191018071501 71 222 2.0 5.0 0.00 0.00 0.00 86 1014.5
20191018064551 71 93 1.0 7.0 0.00 0.00 0.00 86 1014.6
20191018061552 71 74 4.0 12.0 0.00 0.00 0.00 85 1014.7
20191018054537 71 296 3.0 9.0 0.00 0.00 0.00 85 1015.0
20191018053127 72 165 4.0 10.0 0.00 0.00 0.00 85 1015.3
20191018050232 72 209 5.0 16.0 0.00 0.00 0.00 85 1015.5
20191018044542 72 323 4.0 13.0 0.00 0.00 0.00 85 1015.1
20191018041606 72 280 5.0 12.0 0.00 0.00 0.00 84 1015.5
20191018040016 72 267 7.0 14.0 0.00 0.00 0.00 84 1015.3
20191018033106 72 26 3.0 12.0 0.00 0.00 0.00 84 1015.5
20191018031452 72 288 5.0 15.0 0.00 0.00 0.00 84 1015.3
20191018024526 72 261 8.0 19.0 0.00 0.00 0.00 83 1015.1
20191018021601 72 217 6.0 17.0 0.00 0.00 0.00 83 1015.0
20191018014514 73 360 5.0 17.0 0.00 0.00 0.00 82 1014.5
20191018013002 73 360 8.0 20.0 0.00 0.00 0.00 82 1014.3
20191018010100 74 69 2.0 16.0 0.00 0.00 0.00 81 1014.0
20191018004521 75 90 2.0 10.0 0.00 0.00 0.00 80 1013.8
20191018001610 75 108 3.0 10.0 0.00 0.00 0.00 80 1013.9
20191017234506 76 65 2.0 9.0 0.00 0.00 0.00 80 1013.5
20191017231610 78 34 0.0 4.0 0.00 0.00 0.00 78 1012.9
20191017224537 81 197 0.0 8.0 0.00 0.00 0.00 71 1012.5
20191017221554 83 99 2.0 11.0 0.00 0.00 0.00 68 1011.9
20191017214529 85 83 2.0 7.0 0.00 0.00 0.00 63 1011.8
20191017211544 86 223 3.0 9.0 0.00 0.00 0.00 61 1011.6
20191017210034 87 177 1.0 9.0 0.00 0.00 0.00 59 1011.6
20191017204514 88 315 3.0 9.0 0.00 0.00 0.00 57 1011.8
20191017201526 87 203 6.0 11.0 0.00 0.00 0.00 58 1011.7
20191017200016 87 208 2.0 9.0 0.00 0.00 0.00 59 1012.0
20191017193016 86 182 5.0 10.0 0.00 0.00 0.00 59 1012.2
20191017191520 87 299 2.0 9.0 0.00 0.00 0.00 58 1012.4
20191017184618 85 148 3.0 7.0 0.00 0.00 0.00 61 1013.0
20191017183035 84 242 2.0 12.0 0.00 0.00 0.00 61 1013.3
20191017180105 83 214 4.0 10.0 0.00 0.00 0.00 63 1013.7
20191017174549 83 214 3.0 11.0 0.00 0.00 0.00 64 1013.9
20191017171545 81 217 6.0 15.0 0.00 0.00 0.00 68 1014.5
20191017164522 81 257 5.0 10.0 0.00 0.00 0.00 68 1014.8
20191017163010 80 244 2.0 13.0 0.00 0.00 0.00 71 1015.1
20191017160036 79 219 4.0 12.0 0.00 0.00 0.00 73 1015.3
20191017154459 78 317 6.0 16.0 0.00 0.00 0.00 75 1015.6
20191017151602 75 244 3.0 11.0 0.00 0.00 0.00 81 1015.7
20191017144534 76 217 5.0 12.0 0.00 0.00 0.00 82 1016.0
20191017143037 75 178 3.0 12.0 0.00 0.00 0.00 83 1015.6
20191017140025 74 360 1.0 9.0 0.00 0.00 0.00 85 1015.8
20191017133047 72 287 5.0 14.0 0.00 0.00 0.00 88 1015.5
20191017130035 72 284 4.0 10.0 0.00 0.00 0.00 89 1015.6
20191017123019 71 284 2.0 10.0 0.00 0.00 0.00 90 1015.3
20191017121516 71 227 6.0 11.0 0.00 0.00 0.00 90 1015.1
20191017114521 71 183 3.0 10.0 0.00 0.00 0.00 89 1015.1